createdAt,value
2017-04-20T00:00:24.976Z,15.85
2017-04-20T00:01:25.041Z,17.00
2017-04-20T00:02:25.073Z,16.08
2017-04-20T00:03:25.118Z,16.47
2017-04-20T00:04:25.161Z,16.33
2017-04-20T00:05:25.579Z,17.73
2017-04-20T00:06:26.449Z,17.82
2017-04-20T00:07:26.482Z,17.52
2017-04-20T00:08:26.574Z,14.55
2017-04-20T00:09:26.564Z,14.03
2017-04-20T00:10:26.950Z,14.87
2017-04-20T00:11:27.763Z,14.43
2017-04-20T00:12:27.773Z,15.03
2017-04-20T00:13:28.599Z,15.38
2017-04-20T00:14:28.844Z,13.68
2017-04-20T00:15:29.236Z,16.52
2017-04-20T00:16:29.831Z,13.80
2017-04-20T00:17:29.834Z,16.63
2017-04-20T00:18:30.420Z,14.10
2017-04-20T00:19:30.402Z,15.05
2017-04-20T00:20:30.713Z,15.67
2017-04-20T00:21:30.710Z,16.48
2017-04-20T00:22:31.411Z,19.60
2017-04-20T00:23:31.422Z,18.57
2017-04-20T00:24:31.434Z,19.43
2017-04-20T00:25:32.586Z,15.67
2017-04-20T00:26:32.710Z,18.07
2017-04-20T00:27:32.965Z,17.45
2017-04-20T00:28:33.793Z,18.80
2017-04-20T00:29:33.824Z,20.87
2017-04-20T00:30:34.248Z,19.02
2017-04-20T00:31:34.825Z,18.47
2017-04-20T00:32:35.782Z,17.18
2017-04-20T00:33:35.933Z,19.80
2017-04-20T00:34:36.025Z,17.65
2017-04-20T00:35:37.244Z,19.30
2017-04-20T00:36:37.408Z,19.22
2017-04-20T00:37:37.486Z,16.70
2017-04-20T00:38:38.049Z,16.93
2017-04-20T00:39:38.071Z,18.78
2017-04-20T00:40:39.163Z,16.23
2017-04-20T00:41:39.867Z,16.77
2017-04-20T00:42:39.866Z,17.38
2017-04-20T00:43:39.895Z,18.88
2017-04-20T00:44:39.903Z,16.12
2017-04-20T00:45:40.278Z,19.72
2017-04-20T00:46:40.897Z,15.72
2017-04-20T00:47:40.911Z,14.82
2017-04-20T00:48:42.432Z,15.48
2017-04-20T00:49:42.699Z,14.20
2017-04-20T00:50:43.078Z,13.92
2017-04-20T00:51:43.842Z,14.20
2017-04-20T00:52:43.921Z,13.52
2017-04-20T00:53:43.892Z,17.45
2017-04-20T00:54:43.934Z,13.75
2017-04-20T00:55:44.230Z,15.05
2017-04-20T00:56:44.319Z,13.93
2017-04-20T00:57:44.335Z,13.65
2017-04-20T00:58:44.333Z,17.92
2017-04-20T00:59:45.043Z,13.78
2017-04-20T01:00:45.401Z,13.95
2017-04-20T01:01:46.260Z,14.10
2017-04-20T01:02:46.329Z,14.43
2017-04-20T01:03:47.092Z,14.10
2017-04-20T01:04:47.190Z,16.85
2017-04-20T01:05:47.523Z,13.38
2017-04-20T01:06:47.632Z,13.25
2017-04-20T01:07:47.643Z,13.20
2017-04-20T01:08:47.730Z,13.78
2017-04-20T01:09:47.763Z,13.48
2017-04-20T01:10:48.743Z,15.25
2017-04-20T01:11:48.702Z,14.72
2017-04-20T01:12:48.732Z,14.48
2017-04-20T01:13:48.738Z,15.08
2017-04-20T01:14:48.792Z,14.52
2017-04-20T01:15:49.176Z,14.22
2017-04-20T01:16:49.193Z,16.83
2017-04-20T01:17:49.967Z,17.37
2017-04-20T01:18:49.959Z,15.60
2017-04-20T01:19:50.002Z,17.63
2017-04-20T01:20:50.437Z,16.47
2017-04-20T01:21:51.172Z,18.32
2017-04-20T01:22:51.170Z,14.77
2017-04-20T01:23:52.555Z,15.97
2017-04-20T01:24:52.537Z,18.75
2017-04-20T01:25:52.925Z,15.67
2017-04-20T01:26:52.930Z,18.20
2017-04-20T01:27:53.704Z,13.70
2017-04-20T01:28:53.743Z,13.60
2017-04-20T01:29:54.380Z,17.23
2017-04-20T01:30:54.685Z,15.00
2017-04-20T01:31:55.223Z,15.77
2017-04-20T01:32:55.998Z,13.97
2017-04-20T01:33:56.031Z,17.00
2017-04-20T01:34:56.062Z,15.45
2017-04-20T01:35:56.333Z,18.18
2017-04-20T01:36:56.508Z,15.53
2017-04-20T01:37:56.557Z,15.78
2017-04-20T01:38:56.561Z,15.03
2017-04-20T01:39:56.581Z,14.18
2017-04-20T01:40:57.529Z,15.40
2017-04-20T01:41:58.725Z,13.18
2017-04-20T01:42:58.882Z,14.13
2017-04-20T01:43:58.885Z,16.90
2017-04-20T01:44:59.640Z,15.53
2017-04-20T01:46:00.038Z,13.85
2017-04-20T01:47:00.770Z,15.15
2017-04-20T01:48:00.786Z,15.07
2017-04-20T01:49:00.818Z,13.73
2017-04-20T01:50:00.930Z,13.88
2017-04-20T01:51:01.270Z,17.43
2017-04-20T01:52:01.289Z,15.10
2017-04-20T01:53:03.006Z,15.70
2017-04-20T01:54:03.140Z,13.20
2017-04-20T01:55:03.992Z,14.58
2017-04-20T01:56:04.279Z,14.55
2017-04-20T01:57:04.963Z,15.50
2017-04-20T01:58:04.982Z,13.78
2017-04-20T01:59:05.510Z,13.48
2017-04-20T02:00:05.554Z,14.83
2017-04-20T02:01:05.944Z,13.97
2017-04-20T02:02:06.010Z,13.90
2017-04-20T02:03:06.301Z,12.97
2017-04-20T02:04:06.313Z,14.10
2017-04-20T02:05:06.332Z,13.45
2017-04-20T02:06:06.733Z,15.20
2017-04-20T02:07:06.769Z,14.00
2017-04-20T02:08:06.793Z,16.52
2017-04-20T02:09:06.987Z,15.05
2017-04-20T02:10:10.207Z,13.80
2017-04-20T02:11:11.449Z,14.17
2017-04-20T02:12:11.667Z,11.82
2017-04-20T02:13:11.690Z,15.27
2017-04-20T02:14:11.722Z,11.80
2017-04-20T02:15:12.509Z,16.35
2017-04-20T02:16:13.401Z,15.03
2017-04-20T02:17:13.441Z,13.70
2017-04-20T02:18:13.446Z,12.70
2017-04-20T02:19:13.509Z,13.35
2017-04-20T02:20:13.501Z,14.62
2017-04-20T02:21:14.575Z,13.08
2017-04-20T02:22:15.424Z,13.60
2017-04-20T02:23:15.425Z,14.80
2017-04-20T02:24:15.445Z,11.47
2017-04-20T02:25:15.597Z,14.65
2017-04-20T02:26:15.893Z,12.37
2017-04-20T02:27:16.150Z,12.60
2017-04-20T02:28:16.890Z,13.13
2017-04-20T02:29:16.986Z,14.13
2017-04-20T02:30:17.761Z,14.15
2017-04-20T02:31:20.301Z,12.75
2017-04-20T02:32:20.989Z,11.77
2017-04-20T02:33:21.761Z,12.85
2017-04-20T02:34:21.831Z,13.28
2017-04-20T02:35:23.276Z,13.87
2017-04-20T02:36:24.394Z,14.92
2017-04-20T02:37:24.487Z,14.60
2017-04-20T02:38:24.493Z,12.87
2017-04-20T02:39:24.504Z,14.22
2017-04-20T02:40:25.396Z,14.00
2017-04-20T02:41:25.942Z,13.07
2017-04-20T02:42:26.078Z,14.52
2017-04-20T02:43:28.350Z,12.63
2017-04-20T02:44:29.218Z,12.30
2017-04-20T02:45:29.221Z,16.85
2017-04-20T02:46:29.548Z,14.27
2017-04-20T02:47:29.627Z,12.92
2017-04-20T02:48:29.689Z,13.30
2017-04-20T02:49:29.712Z,11.82
2017-04-20T02:50:30.455Z,11.48
2017-04-20T02:51:31.373Z,15.28
2017-04-20T02:52:32.108Z,15.40
2017-04-20T02:53:32.596Z,12.55
2017-04-20T02:54:32.621Z,17.58
2017-04-20T02:55:33.430Z,15.05
2017-04-20T02:56:33.737Z,15.27
2017-04-20T02:57:33.734Z,18.08
2017-04-20T02:58:33.770Z,15.65
2017-04-20T02:59:35.293Z,15.47
2017-04-20T03:00:36.000Z,15.32
2017-04-20T03:01:36.433Z,14.52
2017-04-20T03:02:36.538Z,17.42
2017-04-20T03:03:36.607Z,13.90
2017-04-20T03:04:36.646Z,15.75
2017-04-20T03:05:36.819Z,16.83
2017-04-20T03:06:37.921Z,16.78
2017-04-20T03:07:38.682Z,14.93
2017-04-20T03:08:38.682Z,15.78
2017-04-20T03:09:39.292Z,18.45
2017-04-20T03:10:39.945Z,16.13
2017-04-20T03:11:41.005Z,13.22
2017-04-20T03:12:41.752Z,13.67
2017-04-20T03:13:41.843Z,14.42
2017-04-20T03:14:42.631Z,12.82
2017-04-20T03:15:42.772Z,15.77
2017-04-20T03:16:43.208Z,12.62
2017-04-20T03:17:43.228Z,12.37
2017-04-20T03:18:43.814Z,12.85
2017-04-20T03:19:44.586Z,13.72
2017-04-20T03:20:44.629Z,17.07
2017-04-20T03:21:45.062Z,11.83
2017-04-20T03:22:45.086Z,13.65
2017-04-20T03:23:45.841Z,14.65
2017-04-20T03:24:45.965Z,12.78
2017-04-20T03:25:45.967Z,13.93
2017-04-20T03:26:46.329Z,15.60
2017-04-20T03:27:46.360Z,11.78
2017-04-20T03:28:46.616Z,13.60
2017-04-20T03:29:46.620Z,12.40
2017-04-20T03:30:46.621Z,12.13
2017-04-20T03:31:46.969Z,12.67
2017-04-20T03:32:47.099Z,15.20
2017-04-20T03:33:49.089Z,12.73
2017-04-20T03:34:49.121Z,11.43
2017-04-20T03:35:49.216Z,12.00
2017-04-20T03:36:49.546Z,12.03
2017-04-20T03:37:49.773Z,14.23
2017-04-20T03:38:49.722Z,13.33
2017-04-20T03:39:49.769Z,11.68
2017-04-20T03:40:49.992Z,13.35
2017-04-20T03:41:51.373Z,14.03
2017-04-20T03:42:52.105Z,12.62
2017-04-20T03:43:52.177Z,12.45
2017-04-20T03:44:52.974Z,11.83
2017-04-20T03:45:53.935Z,15.60
2017-04-20T03:46:55.156Z,13.13
2017-04-20T03:47:55.753Z,11.05
2017-04-20T03:48:55.769Z,12.10
2017-04-20T03:49:55.831Z,12.43
2017-04-20T03:50:55.874Z,12.05
2017-04-20T03:51:56.322Z,11.88
2017-04-20T03:52:57.181Z,12.97
2017-04-20T03:53:57.191Z,14.08
2017-04-20T03:54:57.626Z,18.12
2017-04-20T03:55:57.669Z,13.75
2017-04-20T03:56:57.985Z,13.17
2017-04-20T03:57:58.210Z,14.17
2017-04-20T03:58:59.014Z,11.27
2017-04-20T03:59:59.099Z,12.12
2017-04-20T04:00:59.650Z,14.52
2017-04-20T04:02:00.022Z,11.02
2017-04-20T04:02:59.986Z,12.77
2017-04-20T04:04:00.746Z,13.98
2017-04-20T04:05:00.799Z,11.53
2017-04-20T04:06:00.822Z,10.48
2017-04-20T04:07:02.146Z,12.42
2017-04-20T04:08:02.210Z,12.57
2017-04-20T04:09:02.245Z,11.22
2017-04-20T04:10:02.275Z,12.08
2017-04-20T04:11:02.994Z,14.55
2017-04-20T04:12:04.618Z,10.88
2017-04-20T04:13:04.608Z,14.30
2017-04-20T04:14:04.706Z,12.15
2017-04-20T04:15:04.825Z,12.05
2017-04-20T04:16:04.859Z,18.63
2017-04-20T04:17:09.762Z,13.15
2017-04-20T04:18:10.609Z,12.12
2017-04-20T04:19:10.674Z,12.52
2017-04-20T04:20:10.689Z,11.20
2017-04-20T04:21:10.652Z,14.25
2017-04-20T04:22:11.052Z,11.87
2017-04-20T04:23:11.068Z,14.63
2017-04-20T04:24:12.164Z,12.97
2017-04-20T04:25:12.217Z,12.02
2017-04-20T04:26:12.305Z,11.27
2017-04-20T04:27:12.623Z,12.75
2017-04-20T04:28:14.694Z,11.77
2017-04-20T04:29:14.687Z,12.27
2017-04-20T04:30:15.450Z,13.43
2017-04-20T04:31:16.635Z,10.80
2017-04-20T04:32:16.949Z,12.50
2017-04-20T04:33:17.186Z,11.32
2017-04-20T04:34:17.777Z,15.92
2017-04-20T04:35:17.833Z,12.38
2017-04-20T04:36:17.867Z,10.47
2017-04-20T04:37:18.182Z,12.65
2017-04-20T04:38:18.317Z,14.25
2017-04-20T04:39:18.371Z,11.63
2017-04-20T04:40:18.414Z,11.55
2017-04-20T04:41:18.422Z,14.42
2017-04-20T04:42:18.863Z,13.68
2017-04-20T04:43:18.924Z,14.33
2017-04-20T04:44:19.556Z,12.32
2017-04-20T04:45:20.237Z,15.22
2017-04-20T04:46:20.290Z,12.77
2017-04-20T04:47:20.572Z,15.07
2017-04-20T04:48:20.680Z,12.62
2017-04-20T04:49:22.890Z,12.32
2017-04-20T04:50:22.955Z,16.83
2017-04-20T04:51:23.094Z,11.48
2017-04-20T04:52:23.465Z,17.55
2017-04-20T04:53:24.151Z,11.47
2017-04-20T04:54:24.158Z,12.53
2017-04-20T04:55:24.347Z,14.07
2017-04-20T04:56:24.337Z,15.13
2017-04-20T04:57:24.612Z,13.38
2017-04-20T04:58:24.906Z,11.90
2017-04-20T04:59:24.906Z,14.00
2017-04-20T05:00:25.609Z,13.57
2017-04-20T05:01:25.629Z,15.75
2017-04-20T05:02:26.041Z,14.88
2017-04-20T05:03:26.137Z,14.63
2017-04-20T05:04:26.214Z,14.85
2017-04-20T05:05:26.336Z,18.38
2017-04-20T05:06:26.379Z,17.17
2017-04-20T05:07:26.727Z,12.68
2017-04-20T05:08:26.743Z,12.28
2017-04-20T05:09:26.738Z,13.77
2017-04-20T05:10:26.774Z,13.80
2017-04-20T05:11:27.009Z,12.25
2017-04-20T05:12:27.400Z,11.52
2017-04-20T05:13:27.413Z,11.70
2017-04-20T05:14:27.456Z,11.97
2017-04-20T05:15:28.013Z,13.77
2017-04-20T05:16:28.758Z,13.08
2017-04-20T05:17:29.276Z,11.90
2017-04-20T05:18:36.090Z,16.78
2017-04-20T05:19:36.136Z,14.53
2017-04-20T05:20:36.179Z,13.68
2017-04-20T05:21:36.253Z,12.42
2017-04-20T05:22:36.692Z,14.57
2017-04-20T05:23:36.786Z,15.93
2017-04-20T05:24:36.909Z,19.38
2017-04-20T05:25:36.933Z,16.37
2017-04-20T05:26:36.964Z,12.32
2017-04-20T05:27:38.109Z,12.20
2017-04-20T05:28:38.964Z,11.27
2017-04-20T05:29:40.379Z,11.55
2017-04-20T05:30:40.365Z,11.23
2017-04-20T05:31:40.376Z,10.73
2017-04-20T05:32:40.781Z,12.63
2017-04-20T05:33:40.822Z,12.45
2017-04-20T05:34:40.954Z,16.47
2017-04-20T05:35:40.996Z,11.15
2017-04-20T05:36:41.021Z,12.03
2017-04-20T05:37:41.431Z,11.72
2017-04-20T05:38:41.522Z,11.53
2017-04-20T05:39:41.538Z,11.48
2017-04-20T05:40:41.577Z,10.78
2017-04-20T05:41:41.609Z,12.52
2017-04-20T05:42:41.924Z,11.82
2017-04-20T05:43:42.495Z,12.58
2017-04-20T05:44:42.529Z,13.02
2017-04-20T05:45:43.550Z,11.78
2017-04-20T05:46:43.660Z,14.47
2017-04-20T05:47:44.794Z,10.37
2017-04-20T05:48:44.803Z,12.87
2017-04-20T05:49:44.935Z,16.87
2017-04-20T05:50:47.155Z,11.55
2017-04-20T05:51:53.806Z,16.53
2017-04-20T05:52:54.221Z,19.88
2017-04-20T05:53:54.225Z,10.52
2017-04-20T05:54:54.279Z,10.67
2017-04-20T05:55:54.834Z,11.92
2017-04-20T05:56:54.882Z,10.92
2017-04-20T05:57:55.414Z,9.88
2017-04-20T05:58:55.476Z,15.28
2017-04-20T05:59:55.495Z,13.65
2017-04-20T06:00:55.550Z,10.25
2017-04-20T06:01:55.639Z,10.67
2017-04-20T06:02:56.678Z,10.67
2017-04-20T06:03:56.800Z,14.80
2017-04-20T06:04:56.876Z,10.03
2017-04-20T06:05:57.816Z,11.53
2017-04-20T06:06:58.600Z,12.07
2017-04-20T06:07:58.913Z,9.78
2017-04-20T06:08:58.942Z,9.95
2017-04-20T06:09:59.042Z,10.77
2017-04-20T06:10:59.082Z,9.87
2017-04-20T06:11:59.210Z,9.92
2017-04-20T06:12:59.517Z,9.77
2017-04-20T06:14:00.705Z,8.62
2017-04-20T06:15:01.488Z,10.65
2017-04-20T06:16:01.544Z,10.22
2017-04-20T06:17:01.567Z,9.70
2017-04-20T06:18:03.394Z,12.52
2017-04-20T06:19:03.421Z,10.20
2017-04-20T06:20:04.303Z,9.33
2017-04-20T06:21:04.582Z,11.17
2017-04-20T06:22:04.655Z,9.35
2017-04-20T06:23:07.236Z,12.65
2017-04-20T06:24:08.031Z,10.43
2017-04-20T06:25:08.093Z,12.53
2017-04-20T06:26:08.727Z,9.63
2017-04-20T06:27:09.636Z,12.68
2017-04-20T06:28:10.026Z,10.48
2017-04-20T06:29:10.428Z,10.68
2017-04-20T06:30:11.198Z,10.02
2017-04-20T06:31:11.194Z,9.87
2017-04-20T06:32:11.294Z,8.93
2017-04-20T06:33:11.706Z,10.08
2017-04-20T06:34:12.474Z,9.68
2017-04-20T06:35:12.480Z,8.63
2017-04-20T06:36:13.242Z,8.87
2017-04-20T06:37:13.992Z,10.43
2017-04-20T06:38:14.381Z,9.77
2017-04-20T06:39:14.689Z,9.15
2017-04-20T06:40:15.432Z,10.20
2017-04-20T06:41:15.466Z,9.18
2017-04-20T06:42:15.650Z,13.83
2017-04-20T06:43:15.985Z,10.07
2017-04-20T06:44:16.034Z,11.78
2017-04-20T06:45:16.813Z,9.90
2017-04-20T06:46:16.874Z,8.23
2017-04-20T06:47:16.945Z,9.30
2017-04-20T06:48:17.417Z,10.63
2017-04-20T06:49:18.266Z,11.42
2017-04-20T06:50:18.380Z,12.87
2017-04-20T06:51:18.414Z,8.68
2017-04-20T06:52:18.353Z,9.18
2017-04-20T06:53:18.689Z,8.98
2017-04-20T06:54:19.583Z,10.62
2017-04-20T06:55:19.587Z,10.93
2017-04-20T06:56:19.803Z,9.97
2017-04-20T06:57:19.993Z,9.42
2017-04-20T06:58:20.668Z,11.85
2017-04-20T06:59:20.756Z,9.53
2017-04-20T07:00:20.768Z,11.05
2017-04-20T07:01:20.820Z,14.62
2017-04-20T07:02:20.829Z,8.62
2017-04-20T07:03:21.276Z,8.73
2017-04-20T07:04:21.334Z,14.80
2017-04-20T07:05:21.362Z,9.67
2017-04-20T07:06:21.373Z,9.38
2017-04-20T07:07:21.444Z,8.78
2017-04-20T07:08:22.573Z,9.55
2017-04-20T07:09:23.333Z,9.82
2017-04-20T07:10:23.558Z,10.30
2017-04-20T07:11:23.679Z,9.22
2017-04-20T07:12:23.716Z,7.43
2017-04-20T07:13:24.039Z,11.27
2017-04-20T07:14:26.318Z,7.67
2017-04-20T07:15:26.296Z,8.40
2017-04-20T07:16:27.085Z,8.70
2017-04-20T07:17:27.123Z,8.43
2017-04-20T07:18:28.198Z,8.43
2017-04-20T07:19:28.290Z,8.73
2017-04-20T07:20:28.331Z,8.60
2017-04-20T07:21:28.394Z,11.37
2017-04-20T07:22:29.170Z,7.98
2017-04-20T07:23:29.611Z,7.23
2017-04-20T07:24:29.747Z,7.38
2017-04-20T07:25:30.498Z,7.60
2017-04-20T07:26:30.511Z,6.33
2017-04-20T07:27:31.220Z,7.27
2017-04-20T07:28:31.544Z,7.22
2017-04-20T07:29:31.665Z,7.02
2017-04-20T07:30:31.674Z,8.13
2017-04-20T07:31:31.790Z,7.50
2017-04-20T07:32:31.802Z,8.12
2017-04-20T07:33:34.227Z,7.93
2017-04-20T07:34:34.415Z,7.98
2017-04-20T07:35:35.206Z,7.65
2017-04-20T07:36:35.855Z,8.38
2017-04-20T07:37:35.930Z,8.70
2017-04-20T07:38:36.286Z,8.13
2017-04-20T07:39:36.465Z,8.22
2017-04-20T07:40:37.101Z,9.48
2017-04-20T07:41:37.734Z,8.20
2017-04-20T07:42:37.741Z,8.40
2017-04-20T07:43:38.073Z,8.30
2017-04-20T07:44:38.206Z,9.62
2017-04-20T07:45:38.311Z,7.62
2017-04-20T07:46:38.876Z,8.60
2017-04-20T07:47:38.866Z,9.25
2017-04-20T07:48:39.318Z,8.40
2017-04-20T07:49:40.193Z,8.05
2017-04-20T07:50:40.229Z,8.93
2017-04-20T07:51:40.318Z,8.90
2017-04-20T07:52:40.278Z,8.58
2017-04-20T07:53:40.625Z,9.17
2017-04-20T07:54:40.722Z,8.78
2017-04-20T07:55:40.815Z,8.65
2017-04-20T07:56:41.018Z,8.65
2017-04-20T07:57:41.058Z,8.72
2017-04-20T07:58:41.515Z,8.90
2017-04-20T07:59:41.602Z,9.38
2017-04-20T08:00:41.679Z,11.02
2017-04-20T08:01:41.701Z,8.30
2017-04-20T08:02:41.782Z,8.27
2017-04-20T08:03:43.138Z,9.75
2017-04-20T08:04:43.170Z,7.98
2017-04-20T08:05:43.236Z,9.22
2017-04-20T08:06:43.911Z,8.23
2017-04-20T08:07:43.973Z,8.33
2017-04-20T08:08:44.876Z,9.15
2017-04-20T08:09:51.679Z,8.35
2017-04-20T08:10:51.717Z,8.28
2017-04-20T08:11:51.820Z,8.30
2017-04-20T08:12:51.889Z,8.30
2017-04-20T08:13:52.260Z,9.68
2017-04-20T08:14:52.365Z,8.12
2017-04-20T08:15:52.446Z,9.25
2017-04-20T08:16:52.493Z,9.02
2017-04-20T08:17:53.302Z,9.68
2017-04-20T08:18:54.276Z,9.80
2017-04-20T08:19:55.329Z,10.58
2017-04-20T08:20:56.395Z,9.45
2017-04-20T08:21:56.568Z,8.93
2017-04-20T08:22:56.658Z,9.37
2017-04-20T08:23:57.032Z,9.98
2017-04-20T08:24:57.145Z,10.15
2017-04-20T08:25:57.391Z,9.70
2017-04-20T08:26:57.492Z,9.57
2017-04-20T08:27:57.591Z,8.98
2017-04-20T08:28:58.218Z,9.38
2017-04-20T08:29:58.338Z,9.17
2017-04-20T08:30:58.455Z,11.10
2017-04-20T08:31:59.210Z,9.12
2017-04-20T08:32:59.220Z,9.77
2017-04-20T08:33:59.610Z,8.30
2017-04-20T08:34:59.906Z,10.30
2017-04-20T08:36:00.116Z,9.45
2017-04-20T08:37:00.271Z,9.13
2017-04-20T08:38:00.326Z,12.97
2017-04-20T08:39:00.825Z,9.78
2017-04-20T08:40:01.771Z,8.77
2017-04-20T08:41:01.802Z,10.22
2017-04-20T08:42:02.049Z,9.87
2017-04-20T08:43:02.085Z,9.10
2017-04-20T08:44:02.415Z,9.50
2017-04-20T08:45:02.445Z,8.47
2017-04-20T08:46:02.552Z,8.07
2017-04-20T08:47:02.614Z,9.90
2017-04-20T08:48:02.653Z,10.20
2017-04-20T08:49:02.990Z,9.00
2017-04-20T08:50:03.050Z,9.17
2017-04-20T08:51:03.090Z,8.07
2017-04-20T08:52:03.170Z,13.03
2017-04-20T08:53:03.269Z,9.17
2017-04-20T08:54:04.306Z,9.33
2017-04-20T08:55:04.331Z,8.70
2017-04-20T08:56:04.374Z,8.78
2017-04-20T08:57:04.456Z,9.53
2017-04-20T08:58:04.541Z,9.15
2017-04-20T08:59:05.083Z,9.38
2017-04-20T09:00:05.166Z,9.43
2017-04-20T09:01:05.371Z,9.50
2017-04-20T09:02:05.416Z,9.88
2017-04-20T09:03:05.458Z,7.82
2017-04-20T09:04:05.802Z,9.03
2017-04-20T09:05:06.609Z,17.00
2017-04-20T09:06:06.632Z,8.40
2017-04-20T09:07:07.484Z,8.65
2017-04-20T09:08:07.548Z,8.45
2017-04-20T09:09:08.170Z,8.62
2017-04-20T09:10:08.214Z,8.50
2017-04-20T09:11:08.267Z,7.77
2017-04-20T09:13:09.078Z,9.97
2017-04-20T09:14:10.054Z,9.72
2017-04-20T09:15:10.056Z,8.93
2017-04-20T09:16:10.292Z,8.93
2017-04-20T09:17:10.404Z,8.98
2017-04-20T09:18:10.452Z,8.73
2017-04-20T09:19:10.806Z,9.08
2017-04-20T09:20:11.705Z,8.42
2017-04-20T09:21:12.398Z,8.22
2017-04-20T09:22:12.463Z,8.55
2017-04-20T09:23:12.624Z,9.62
2017-04-20T09:24:13.003Z,8.42
2017-04-20T09:25:13.148Z,8.03
2017-04-20T09:26:14.386Z,11.38
2017-04-20T09:27:18.601Z,8.60
2017-04-20T09:28:18.730Z,8.58
2017-04-20T09:29:19.261Z,8.80
2017-04-20T09:30:19.373Z,8.70
2017-04-20T09:31:19.489Z,9.47
2017-04-20T09:32:20.223Z,8.58
2017-04-20T09:33:20.305Z,8.27
2017-04-20T09:34:20.630Z,7.93
2017-04-20T09:35:20.762Z,7.83
2017-04-20T09:36:20.781Z,8.62
2017-04-20T09:37:20.882Z,8.15
2017-04-20T09:38:23.853Z,8.03
2017-04-20T09:39:24.241Z,7.97
2017-04-20T09:40:24.311Z,7.70
2017-04-20T09:41:24.509Z,7.85
2017-04-20T09:42:24.528Z,8.33
2017-04-20T09:43:24.571Z,9.42
2017-04-20T09:44:24.996Z,8.00
2017-04-20T09:45:25.026Z,9.08
2017-04-20T09:46:25.141Z,8.70
2017-04-20T09:47:25.165Z,9.28
2017-04-20T09:48:25.194Z,8.52
2017-04-20T09:49:32.142Z,8.28
2017-04-20T09:50:32.124Z,9.00
2017-04-20T09:51:32.379Z,9.17
2017-04-20T09:52:32.415Z,9.60
2017-04-20T09:53:32.456Z,8.88
2017-04-20T09:54:32.920Z,9.40
2017-04-20T09:55:32.947Z,9.75
2017-04-20T09:56:33.033Z,9.32
2017-04-20T09:57:33.385Z,8.32
2017-04-20T09:58:33.378Z,7.80
2017-04-20T09:59:34.585Z,8.45
2017-04-20T10:00:34.679Z,8.53
2017-04-20T10:01:34.728Z,8.63
2017-04-20T10:02:34.788Z,8.92
2017-04-20T10:03:34.810Z,7.35
2017-04-20T10:04:35.258Z,9.03
2017-04-20T10:05:36.262Z,8.05
2017-04-20T10:06:36.335Z,7.38
2017-04-20T10:07:36.344Z,8.65
2017-04-20T10:08:36.338Z,8.00
2017-04-20T10:09:36.830Z,8.05
2017-04-20T10:10:37.696Z,8.13
2017-04-20T10:11:37.834Z,8.27
2017-04-20T10:12:38.605Z,8.00
2017-04-20T10:13:38.806Z,8.68
2017-04-20T10:14:39.316Z,8.32
2017-04-20T10:15:40.034Z,8.52
2017-04-20T10:16:40.076Z,9.50
2017-04-20T10:17:40.086Z,8.12
2017-04-20T10:18:40.242Z,9.43
2017-04-20T10:19:40.604Z,8.45
2017-04-20T10:20:40.762Z,8.67
2017-04-20T10:21:40.840Z,9.65
2017-04-20T10:22:41.486Z,8.55
2017-04-20T10:23:41.539Z,7.95
2017-04-20T10:24:42.049Z,9.47
2017-04-20T10:25:42.925Z,8.42
2017-04-20T10:26:42.942Z,8.92
2017-04-20T10:27:43.086Z,8.58
2017-04-20T10:28:43.188Z,8.80
2017-04-20T10:29:43.627Z,8.55
2017-04-20T10:30:43.871Z,8.47
2017-04-20T10:31:43.930Z,9.08
2017-04-20T10:32:44.737Z,9.43
2017-04-20T10:33:44.870Z,9.12
2017-04-20T10:34:45.995Z,8.65
2017-04-20T10:35:46.146Z,9.35
2017-04-20T10:36:46.315Z,9.42
2017-04-20T10:37:46.340Z,8.50
2017-04-20T10:38:46.365Z,8.40
2017-04-20T10:39:46.767Z,9.65
2017-04-20T10:40:46.815Z,9.55
2017-04-20T10:41:46.822Z,8.00
2017-04-20T10:42:46.866Z,9.88
2017-04-20T10:43:47.018Z,9.28
2017-04-20T10:44:47.313Z,7.87
2017-04-20T10:45:47.327Z,8.73
2017-04-20T10:46:47.398Z,8.53
2017-04-20T10:47:47.405Z,8.68
2017-04-20T10:48:47.407Z,8.82
2017-04-20T10:49:47.737Z,8.63
2017-04-20T10:50:48.512Z,8.27
2017-04-20T10:51:48.547Z,7.80
2017-04-20T10:52:48.509Z,9.50
2017-04-20T10:53:48.509Z,9.03
2017-04-20T10:54:48.877Z,9.23
2017-04-20T10:55:48.926Z,7.92
2017-04-20T10:56:48.928Z,9.22
2017-04-20T10:57:48.986Z,9.60
2017-04-20T10:58:49.061Z,9.55
2017-04-20T10:59:49.454Z,9.73
2017-04-20T11:00:49.446Z,8.15
2017-04-20T11:01:50.250Z,9.57
2017-04-20T11:02:50.253Z,9.25
2017-04-20T11:03:50.318Z,8.38
2017-04-20T11:04:50.745Z,9.23
2017-04-20T11:05:51.178Z,8.45
2017-04-20T11:06:51.796Z,8.78
2017-04-20T11:07:52.539Z,8.70
2017-04-20T11:08:52.552Z,8.12
2017-04-20T11:09:52.986Z,8.87
2017-04-20T11:10:53.050Z,8.47
2017-04-20T11:11:53.597Z,9.03
2017-04-20T11:12:53.770Z,10.08
2017-04-20T11:13:53.810Z,9.50
2017-04-20T11:14:54.190Z,8.72
2017-04-20T11:15:54.230Z,8.95
2017-04-20T11:16:54.244Z,8.92
2017-04-20T11:17:54.241Z,8.13
2017-04-20T11:18:54.307Z,9.40
2017-04-20T11:19:54.790Z,9.45
2017-04-20T11:20:54.926Z,8.60
2017-04-20T11:21:54.950Z,9.72
2017-04-20T11:22:54.979Z,9.75
2017-04-20T11:23:55.059Z,9.83
2017-04-20T11:24:55.534Z,9.80
2017-04-20T11:25:55.542Z,10.05
2017-04-20T11:26:55.560Z,10.12
2017-04-20T11:27:56.291Z,8.95
2017-04-20T11:28:56.378Z,10.48
2017-04-20T11:29:57.531Z,10.38
2017-04-20T11:30:57.705Z,9.25
2017-04-20T11:31:57.931Z,9.15
2017-04-20T11:32:57.973Z,9.27
2017-04-20T11:33:58.048Z,9.85
2017-04-20T11:34:58.691Z,9.57
2017-04-20T11:35:58.715Z,9.80
2017-04-20T11:36:58.834Z,9.82
2017-04-20T11:37:58.964Z,9.95
2017-04-20T11:38:59.150Z,8.57
2017-04-20T11:39:59.540Z,9.27
2017-04-20T11:40:59.517Z,8.67
2017-04-20T11:41:59.599Z,9.33
2017-04-20T11:42:59.645Z,9.87
2017-04-20T11:44:00.435Z,9.42
2017-04-20T11:45:01.115Z,8.80
2017-04-20T11:46:01.120Z,8.82
2017-04-20T11:47:01.158Z,9.07
2017-04-20T11:48:01.173Z,8.92
2017-04-20T11:49:01.210Z,9.30
2017-04-20T11:50:01.651Z,12.38
2017-04-20T11:51:01.833Z,9.30
2017-04-20T11:52:01.828Z,10.20
2017-04-20T11:53:01.929Z,9.57
2017-04-20T11:54:01.934Z,10.08
2017-04-20T11:55:02.482Z,10.10
2017-04-20T11:56:03.250Z,9.47
2017-04-20T11:57:03.263Z,9.17
2017-04-20T11:58:03.298Z,9.55
2017-04-20T11:59:03.394Z,9.83
2017-04-20T12:00:03.843Z,9.95
2017-04-20T12:01:04.918Z,9.82
2017-04-20T12:02:04.981Z,9.65
2017-04-20T12:03:04.998Z,9.60
2017-04-20T12:04:05.907Z,9.95
2017-04-20T12:05:06.356Z,9.77
2017-04-20T12:06:06.590Z,11.30
2017-04-20T12:07:07.373Z,10.35
2017-04-20T12:08:08.027Z,11.37
2017-04-20T12:09:08.152Z,10.63
2017-04-20T12:10:08.515Z,9.47
2017-04-20T12:11:09.298Z,9.43
2017-04-20T12:12:09.325Z,10.05
2017-04-20T12:13:09.474Z,10.13
2017-04-20T12:14:09.622Z,11.23
2017-04-20T12:15:10.030Z,11.53
2017-04-20T12:16:10.054Z,9.48
2017-04-20T12:17:10.089Z,9.60
2017-04-20T12:18:10.125Z,9.57
2017-04-20T12:19:10.562Z,10.63
2017-04-20T12:20:10.936Z,10.22
2017-04-20T12:21:11.012Z,10.90
2017-04-20T12:22:11.049Z,11.32
2017-04-20T12:23:11.935Z,14.17
2017-04-20T12:24:12.054Z,10.60
2017-04-20T12:25:12.534Z,9.23
2017-04-20T12:26:12.598Z,9.50
2017-04-20T12:27:12.645Z,10.62
2017-04-20T12:28:12.736Z,10.18
2017-04-20T12:29:12.827Z,10.73
2017-04-20T12:30:13.394Z,10.38
2017-04-20T12:31:13.440Z,10.22
2017-04-20T12:32:13.631Z,10.95
2017-04-20T12:33:14.422Z,10.72
2017-04-20T12:34:14.865Z,9.85
2017-04-20T12:35:15.260Z,10.20
2017-04-20T12:36:15.336Z,10.17
2017-04-20T12:37:15.523Z,10.65
2017-04-20T12:38:15.592Z,11.23
2017-04-20T12:39:16.378Z,10.38
2017-04-20T12:40:16.805Z,11.03
2017-04-20T12:41:16.846Z,10.67
2017-04-20T12:42:17.060Z,13.53
2017-04-20T12:43:17.650Z,11.10
2017-04-20T12:44:17.901Z,10.30
2017-04-20T12:45:18.271Z,10.13
2017-04-20T12:46:18.334Z,10.75
2017-04-20T12:47:18.377Z,10.93
2017-04-20T12:48:18.361Z,10.93
2017-04-20T12:49:19.095Z,10.53
2017-04-20T12:50:19.452Z,11.02
2017-04-20T12:51:19.510Z,10.95
2017-04-20T12:52:19.744Z,10.67
2017-04-20T12:53:20.606Z,11.08
2017-04-20T12:54:20.653Z,10.58
2017-04-20T12:55:21.198Z,10.23
2017-04-20T12:56:21.367Z,11.48
2017-04-20T12:57:21.455Z,10.33
2017-04-20T12:58:21.700Z,10.72
2017-04-20T12:59:22.530Z,12.03
2017-04-20T13:00:22.894Z,13.97
2017-04-20T13:01:22.974Z,10.65
2017-04-20T13:02:23.074Z,11.27
2017-04-20T13:03:23.163Z,10.23
2017-04-20T13:04:23.199Z,15.12
2017-04-20T13:05:24.440Z,12.63
2017-04-20T13:06:25.334Z,11.15
2017-04-20T13:07:31.992Z,14.43
2017-04-20T13:08:32.158Z,11.65